sensor_id;sensor_type;location;lat;lon;timestamp;pressure;altitude;pressure_sealevel;temperature;humidity
11329;BME280;5719;42.714;23.732;2023-04-28T00:02:07;94608.09;;;6.82;70.12
11329;BME280;5719;42.714;23.732;2023-04-28T00:04:34;94609.16;;;6.78;70.03
11329;BME280;5719;42.714;23.732;2023-04-28T00:07:01;94611.91;;;6.75;70.12
11329;BME280;5719;42.714;23.732;2023-04-28T00:09:28;94612.44;;;6.66;71.02
11329;BME280;5719;42.714;23.732;2023-04-28T00:11:56;94615.00;;;6.66;71.86
11329;BME280;5719;42.714;23.732;2023-04-28T00:14:24;94621.53;;;6.56;72.24
11329;BME280;5719;42.714;23.732;2023-04-28T00:16:51;94616.31;;;6.42;72.90
11329;BME280;5719;42.714;23.732;2023-04-28T00:19:21;94612.50;;;6.33;72.87
11329;BME280;5719;42.714;23.732;2023-04-28T00:21:47;94618.88;;;6.26;73.14
11329;BME280;5719;42.714;23.732;2023-04-28T00:24:14;94616.38;;;6.25;73.46
11329;BME280;5719;42.714;23.732;2023-04-28T00:26:41;94617.78;;;6.15;73.96
11329;BME280;5719;42.714;23.732;2023-04-28T00:29:09;94619.59;;;6.13;74.33
11329;BME280;5719;42.714;23.732;2023-04-28T00:31:36;94616.44;;;6.08;73.21
11329;BME280;5719;42.714;23.732;2023-04-28T00:34:03;94620.97;;;6.03;73.17
11329;BME280;5719;42.714;23.732;2023-04-28T00:36:30;94622.28;;;5.94;73.57
11329;BME280;5719;42.714;23.732;2023-04-28T00:38:57;94632.47;;;5.78;74.82
11329;BME280;5719;42.714;23.732;2023-04-28T00:41:24;94630.88;;;5.76;74.74
11329;BME280;5719;42.714;23.732;2023-04-28T00:43:51;94631.88;;;5.73;74.99
11329;BME280;5719;42.714;23.732;2023-04-28T00:46:22;94631.38;;;5.67;75.36
11329;BME280;5719;42.714;23.732;2023-04-28T00:48:50;94641.09;;;5.60;75.04
11329;BME280;5719;42.714;23.732;2023-04-28T00:51:17;94639.88;;;5.50;75.43
11329;BME280;5719;42.714;23.732;2023-04-28T00:53:44;94628.94;;;5.47;75.55
11329;BME280;5719;42.714;23.732;2023-04-28T00:56:11;94630.16;;;5.39;75.72
11329;BME280;5719;42.714;23.732;2023-04-28T00:58:38;94637.94;;;5.21;77.54
11329;BME280;5719;42.714;23.732;2023-04-28T01:01:07;94637.69;;;5.08;77.89
11329;BME280;5719;42.714;23.732;2023-04-28T01:03:37;94631.06;;;5.04;78.11
11329;BME280;5719;42.714;23.732;2023-04-28T01:06:05;94638.69;;;5.06;78.11
11329;BME280;5719;42.714;23.732;2023-04-28T01:08:33;94637.75;;;4.89;78.86
11329;BME280;5719;42.714;23.732;2023-04-28T01:11:01;94639.25;;;4.93;78.27
11329;BME280;5719;42.714;23.732;2023-04-28T01:13:27;94632.31;;;4.95;78.35
11329;BME280;5719;42.714;23.732;2023-04-28T01:15:54;94638.38;;;4.94;78.10
11329;BME280;5719;42.714;23.732;2023-04-28T01:18:22;94632.56;;;4.91;78.28
11329;BME280;5719;42.714;23.732;2023-04-28T01:20:50;94643.63;;;4.91;77.81
11329;BME280;5719;42.714;23.732;2023-04-28T01:23:17;94637.94;;;4.85;77.68
11329;BME280;5719;42.714;23.732;2023-04-28T01:25:46;94632.28;;;4.78;77.78
11329;BME280;5719;42.714;23.732;2023-04-28T01:28:12;94630.56;;;4.79;78.19
11329;BME280;5719;42.714;23.732;2023-04-28T01:30:39;94637.41;;;4.78;77.60
11329;BME280;5719;42.714;23.732;2023-04-28T01:33:06;94638.41;;;4.76;77.41
11329;BME280;5719;42.714;23.732;2023-04-28T01:35:33;94630.94;;;4.71;77.74
11329;BME280;5719;42.714;23.732;2023-04-28T01:38:00;94641.31;;;4.68;77.68
11329;BME280;5719;42.714;23.732;2023-04-28T01:40:27;94638.00;;;4.66;77.26
11329;BME280;5719;42.714;23.732;2023-04-28T01:42:55;94640.00;;;4.60;77.92
11329;BME280;5719;42.714;23.732;2023-04-28T01:45:22;94641.72;;;4.59;78.20
11329;BME280;5719;42.714;23.732;2023-04-28T01:47:49;94645.34;;;4.55;78.19
11329;BME280;5719;42.714;23.732;2023-04-28T01:50:16;94648.13;;;4.51;78.82
11329;BME280;5719;42.714;23.732;2023-04-28T01:52:43;94645.06;;;4.42;78.79
11329;BME280;5719;42.714;23.732;2023-04-28T01:55:10;94646.06;;;4.40;79.06
11329;BME280;5719;42.714;23.732;2023-04-28T01:57:37;94648.75;;;4.37;79.29
11329;BME280;5719;42.714;23.732;2023-04-28T02:00:06;94642.03;;;4.34;79.71
11329;BME280;5719;42.714;23.732;2023-04-28T02:02:33;94653.09;;;4.35;79.40
11329;BME280;5719;42.714;23.732;2023-04-28T02:05:01;94652.47;;;4.30;79.69
11329;BME280;5719;42.714;23.732;2023-04-28T02:07:28;94656.09;;;4.26;80.15
11329;BME280;5719;42.714;23.732;2023-04-28T02:09:54;94655.44;;;4.21;79.93
11329;BME280;5719;42.714;23.732;2023-04-28T02:12:21;94655.50;;;4.19;80.49
11329;BME280;5719;42.714;23.732;2023-04-28T02:14:48;94650.47;;;4.18;80.40
11329;BME280;5719;42.714;23.732;2023-04-28T02:17:17;94651.31;;;4.18;80.53
11329;BME280;5719;42.714;23.732;2023-04-28T02:19:44;94649.91;;;4.11;80.89
11329;BME280;5719;42.714;23.732;2023-04-28T02:22:11;94656.75;;;4.11;80.46
11329;BME280;5719;42.714;23.732;2023-04-28T02:24:37;94657.66;;;4.10;80.83
11329;BME280;5719;42.714;23.732;2023-04-28T02:27:05;94657.78;;;4.07;79.92
11329;BME280;5719;42.714;23.732;2023-04-28T02:29:31;94665.66;;;4.02;79.48
11329;BME280;5719;42.714;23.732;2023-04-28T02:31:58;94671.75;;;4.00;79.57
11329;BME280;5719;42.714;23.732;2023-04-28T02:34:26;94672.13;;;3.90;79.61
11329;BME280;5719;42.714;23.732;2023-04-28T02:36:53;94667.81;;;3.72;79.51
11329;BME280;5719;42.714;23.732;2023-04-28T02:39:20;94669.97;;;3.61;79.40
11329;BME280;5719;42.714;23.732;2023-04-28T02:41:50;94675.34;;;3.55;80.16
11329;BME280;5719;42.714;23.732;2023-04-28T02:44:17;94676.31;;;3.53;80.80
11329;BME280;5719;42.714;23.732;2023-04-28T02:46:44;94682.38;;;3.50;81.45
11329;BME280;5719;42.714;23.732;2023-04-28T02:49:11;94684.31;;;3.45;81.72
11329;BME280;5719;42.714;23.732;2023-04-28T02:51:39;94687.94;;;3.39;82.88
11329;BME280;5719;42.714;23.732;2023-04-28T02:54:06;94689.53;;;3.42;82.80
11329;BME280;5719;42.714;23.732;2023-04-28T02:56:34;94686.91;;;3.43;82.58
11329;BME280;5719;42.714;23.732;2023-04-28T02:59:01;94689.41;;;3.45;82.80
11329;BME280;5719;42.714;23.732;2023-04-28T03:01:28;94697.13;;;3.43;82.42
11329;BME280;5719;42.714;23.732;2023-04-28T03:03:55;94699.25;;;3.34;82.43
11329;BME280;5719;42.714;23.732;2023-04-28T03:06:22;94698.00;;;3.22;83.06
11329;BME280;5719;42.714;23.732;2023-04-28T03:08:50;94698.84;;;3.23;83.33
11329;BME280;5719;42.714;23.732;2023-04-28T03:11:17;94697.44;;;3.16;83.49
11329;BME280;5719;42.714;23.732;2023-04-28T03:13:44;94703.25;;;3.19;83.57
11329;BME280;5719;42.714;23.732;2023-04-28T03:16:11;94704.22;;;3.17;83.80
11329;BME280;5719;42.714;23.732;2023-04-28T03:18:38;94709.09;;;3.21;84.12
11329;BME280;5719;42.714;23.732;2023-04-28T03:21:05;94720.13;;;3.23;83.69
11329;BME280;5719;42.714;23.732;2023-04-28T03:23:32;94716.84;;;3.20;84.02
11329;BME280;5719;42.714;23.732;2023-04-28T03:26:00;94713.50;;;3.18;83.67
11329;BME280;5719;42.714;23.732;2023-04-28T03:28:27;94716.06;;;3.18;83.45
11329;BME280;5719;42.714;23.732;2023-04-28T03:30:54;94717.69;;;3.20;83.25
11329;BME280;5719;42.714;23.732;2023-04-28T03:33:21;94731.25;;;3.21;83.30
11329;BME280;5719;42.714;23.732;2023-04-28T03:35:48;94729.53;;;3.21;83.88
11329;BME280;5719;42.714;23.732;2023-04-28T03:38:15;94727.19;;;3.17;83.51
11329;BME280;5719;42.714;23.732;2023-04-28T03:40:42;94732.22;;;3.18;83.25
11329;BME280;5719;42.714;23.732;2023-04-28T03:43:10;94734.06;;;3.15;83.78
11329;BME280;5719;42.714;23.732;2023-04-28T03:45:37;94734.94;;;3.14;83.65
11329;BME280;5719;42.714;23.732;2023-04-28T03:48:04;94741.72;;;3.15;84.05
11329;BME280;5719;42.714;23.732;2023-04-28T03:50:31;94746.91;;;3.13;84.25
11329;BME280;5719;42.714;23.732;2023-04-28T03:52:58;94753.66;;;3.14;84.11
11329;BME280;5719;42.714;23.732;2023-04-28T03:55:25;94760.31;;;3.18;84.53
11329;BME280;5719;42.714;23.732;2023-04-28T03:57:52;94758.59;;;3.19;84.24
11329;BME280;5719;42.714;23.732;2023-04-28T04:00:20;94762.75;;;3.21;85.02
11329;BME280;5719;42.714;23.732;2023-04-28T04:02:47;94766.81;;;3.27;84.90
11329;BME280;5719;42.714;23.732;2023-04-28T04:05:14;94771.78;;;3.30;85.41
11329;BME280;5719;42.714;23.732;2023-04-28T04:07:41;94773.34;;;3.34;85.79
11329;BME280;5719;42.714;23.732;2023-04-28T04:10:08;94780.75;;;3.40;85.56
11329;BME280;5719;42.714;23.732;2023-04-28T04:12:35;94775.50;;;3.43;85.37
11329;BME280;5719;42.714;23.732;2023-04-28T04:15:03;94776.31;;;3.45;84.96
11329;BME280;5719;42.714;23.732;2023-04-28T04:17:32;94785.50;;;3.49;85.72
11329;BME280;5719;42.714;23.732;2023-04-28T04:19:58;94786.72;;;3.61;86.03
11329;BME280;5719;42.714;23.732;2023-04-28T04:22:25;94792.78;;;3.58;85.42
11329;BME280;5719;42.714;23.732;2023-04-28T04:24:52;94784.56;;;3.72;85.34
11329;BME280;5719;42.714;23.732;2023-04-28T04:27:19;94797.56;;;3.87;84.72
11329;BME280;5719;42.714;23.732;2023-04-28T04:29:46;94793.09;;;3.92;84.61
11329;BME280;5719;42.714;23.732;2023-04-28T04:32:13;94795.66;;;4.13;84.32
11329;BME280;5719;42.714;23.732;2023-04-28T04:34:41;94794.88;;;4.31;84.14
11329;BME280;5719;42.714;23.732;2023-04-28T04:37:08;94794.88;;;4.51;83.67
11329;BME280;5719;42.714;23.732;2023-04-28T04:39:35;94796.75;;;4.66;83.04
11329;BME280;5719;42.714;23.732;2023-04-28T04:42:02;94794.66;;;4.74;82.63
11329;BME280;5719;42.714;23.732;2023-04-28T04:44:29;94795.72;;;4.89;82.50
11329;BME280;5719;42.714;23.732;2023-04-28T04:46:55;94800.09;;;5.06;82.13
11329;BME280;5719;42.714;23.732;2023-04-28T04:49:22;94802.56;;;5.26;80.67
11329;BME280;5719;42.714;23.732;2023-04-28T04:51:51;94799.09;;;5.46;79.78
11329;BME280;5719;42.714;23.732;2023-04-28T04:54:17;94797.38;;;5.63;79.40
11329;BME280;5719;42.714;23.732;2023-04-28T04:56:44;94792.84;;;5.68;78.35
11329;BME280;5719;42.714;23.732;2023-04-28T04:59:11;94806.34;;;5.90;78.35
11329;BME280;5719;42.714;23.732;2023-04-28T05:01:38;94811.41;;;6.09;78.13
11329;BME280;5719;42.714;23.732;2023-04-28T05:04:05;94807.19;;;6.08;77.34
11329;BME280;5719;42.714;23.732;2023-04-28T05:06:32;94808.84;;;6.26;76.15
11329;BME280;5719;42.714;23.732;2023-04-28T05:09:00;94804.44;;;6.46;75.41
11329;BME280;5719;42.714;23.732;2023-04-28T05:11:27;94809.78;;;6.58;74.72
11329;BME280;5719;42.714;23.732;2023-04-28T05:13:54;94804.59;;;6.75;73.85
11329;BME280;5719;42.714;23.732;2023-04-28T05:16:21;94807.72;;;6.98;73.67
11329;BME280;5719;42.714;23.732;2023-04-28T05:18:48;94804.66;;;7.22;71.08
11329;BME280;5719;42.714;23.732;2023-04-28T05:21:15;94801.84;;;7.43;70.44
11329;BME280;5719;42.714;23.732;2023-04-28T05:23:42;94793.69;;;7.66;69.03
11329;BME280;5719;42.714;23.732;2023-04-28T05:26:10;94799.03;;;7.93;66.39
11329;BME280;5719;42.714;23.732;2023-04-28T05:28:38;94802.47;;;8.23;66.11
11329;BME280;5719;42.714;23.732;2023-04-28T05:31:06;94798.84;;;8.41;64.84
11329;BME280;5719;42.714;23.732;2023-04-28T05:33:33;94810.00;;;8.56;64.03
11329;BME280;5719;42.714;23.732;2023-04-28T05:36:00;94808.06;;;8.45;63.10
11329;BME280;5719;42.714;23.732;2023-04-28T05:38:27;94806.69;;;8.68;64.56
11329;BME280;5719;42.714;23.732;2023-04-28T05:40:53;94802.19;;;9.00;62.91
11329;BME280;5719;42.714;23.732;2023-04-28T05:43:22;94801.53;;;9.24;62.06
11329;BME280;5719;42.714;23.732;2023-04-28T05:45:49;94798.81;;;9.54;61.20
11329;BME280;5719;42.714;23.732;2023-04-28T05:48:15;94803.88;;;9.82;59.17
11329;BME280;5719;42.714;23.732;2023-04-28T05:50:42;94798.38;;;10.01;58.34
11329;BME280;5719;42.714;23.732;2023-04-28T05:53:09;94808.53;;;9.63;58.77
11329;BME280;5719;42.714;23.732;2023-04-28T05:55:36;94803.16;;;9.66;58.87
11329;BME280;5719;42.714;23.732;2023-04-28T05:58:03;94806.63;;;10.06;57.49
11329;BME280;5719;42.714;23.732;2023-04-28T06:00:32;94807.41;;;10.21;57.78
11329;BME280;5719;42.714;23.732;2023-04-28T06:03:00;94805.81;;;10.45;57.72
11329;BME280;5719;42.714;23.732;2023-04-28T06:05:27;94812.47;;;10.74;56.81
11329;BME280;5719;42.714;23.732;2023-04-28T06:07:54;94807.06;;;10.90;55.27
11329;BME280;5719;42.714;23.732;2023-04-28T06:10:20;94805.38;;;10.39;55.84
11329;BME280;5719;42.714;23.732;2023-04-28T06:12:47;94813.28;;;10.62;56.61
11329;BME280;5719;42.714;23.732;2023-04-28T06:15:14;94810.03;;;10.07;57.27
11329;BME280;5719;42.714;23.732;2023-04-28T06:17:43;94817.56;;;8.73;59.88
11329;BME280;5719;42.714;23.732;2023-04-28T06:20:11;94824.84;;;8.80;59.14
11329;BME280;5719;42.714;23.732;2023-04-28T06:22:38;94809.34;;;9.23;57.25
11329;BME280;5719;42.714;23.732;2023-04-28T06:25:06;94813.78;;;9.62;56.41
11329;BME280;5719;42.714;23.732;2023-04-28T06:27:33;94817.75;;;9.67;56.89
11329;BME280;5719;42.714;23.732;2023-04-28T06:30:00;94813.41;;;9.68;55.25
11329;BME280;5719;42.714;23.732;2023-04-28T06:32:29;94810.25;;;10.30;52.98
11329;BME280;5719;42.714;23.732;2023-04-28T06:34:57;94813.38;;;10.09;53.85
11329;BME280;5719;42.714;23.732;2023-04-28T06:37:24;94815.72;;;10.39;53.63
11329;BME280;5719;42.714;23.732;2023-04-28T06:39:51;94821.47;;;9.49;53.22
11329;BME280;5719;42.714;23.732;2023-04-28T06:42:18;94818.56;;;9.13;55.33
11329;BME280;5719;42.714;23.732;2023-04-28T06:44:45;94813.78;;;8.93;58.06
11329;BME280;5719;42.714;23.732;2023-04-28T06:47:12;94814.03;;;9.30;53.09
11329;BME280;5719;42.714;23.732;2023-04-28T06:49:39;94819.97;;;8.90;54.46
11329;BME280;5719;42.714;23.732;2023-04-28T06:52:09;94813.78;;;8.93;55.58
11329;BME280;5719;42.714;23.732;2023-04-28T06:54:38;94809.19;;;9.12;56.38
11329;BME280;5719;42.714;23.732;2023-04-28T06:57:05;94798.00;;;9.66;54.64
11329;BME280;5719;42.714;23.732;2023-04-28T06:59:32;94798.16;;;10.04;54.61
11329;BME280;5719;42.714;23.732;2023-04-28T07:01:59;94798.78;;;10.47;50.97
11329;BME280;5719;42.714;23.732;2023-04-28T07:04:26;94792.75;;;9.95;52.13
11329;BME280;5719;42.714;23.732;2023-04-28T07:06:53;94791.47;;;9.34;54.75
11329;BME280;5719;42.714;23.732;2023-04-28T07:09:21;94798.38;;;10.14;52.30
11329;BME280;5719;42.714;23.732;2023-04-28T07:11:48;94792.44;;;10.26;50.24
11329;BME280;5719;42.714;23.732;2023-04-28T07:14:15;94797.13;;;11.22;49.17
11329;BME280;5719;42.714;23.732;2023-04-28T07:16:42;94801.03;;;11.15;46.63
11329;BME280;5719;42.714;23.732;2023-04-28T07:19:09;94798.78;;;11.10;49.50
11329;BME280;5719;42.714;23.732;2023-04-28T07:21:36;94788.84;;;11.17;48.98
11329;BME280;5719;42.714;23.732;2023-04-28T07:24:03;94805.41;;;11.02;48.14
11329;BME280;5719;42.714;23.732;2023-04-28T07:26:32;94791.84;;;10.60;48.32
11329;BME280;5719;42.714;23.732;2023-04-28T07:28:59;94802.31;;;11.09;47.74
11329;BME280;5719;42.714;23.732;2023-04-28T07:31:26;94785.09;;;11.21;47.52
11329;BME280;5719;42.714;23.732;2023-04-28T07:33:53;94795.59;;;10.56;48.17
11329;BME280;5719;42.714;23.732;2023-04-28T07:36:21;94801.28;;;10.49;47.46
11329;BME280;5719;42.714;23.732;2023-04-28T07:38:48;94791.06;;;10.85;49.16
11329;BME280;5719;42.714;23.732;2023-04-28T07:41:16;94797.34;;;11.55;46.53
11329;BME280;5719;42.714;23.732;2023-04-28T07:43:44;94787.13;;;11.41;45.09
11329;BME280;5719;42.714;23.732;2023-04-28T07:46:12;94793.78;;;12.05;45.10
11329;BME280;5719;42.714;23.732;2023-04-28T07:48:39;94793.25;;;12.00;45.39
11329;BME280;5719;42.714;23.732;2023-04-28T07:51:06;94780.19;;;11.78;43.70
11329;BME280;5719;42.714;23.732;2023-04-28T07:53:33;94786.97;;;11.55;44.36
11329;BME280;5719;42.714;23.732;2023-04-28T07:56:00;94784.19;;;12.29;44.62
11329;BME280;5719;42.714;23.732;2023-04-28T07:58:27;94779.88;;;13.20;44.71
11329;BME280;5719;42.714;23.732;2023-04-28T08:00:55;94795.03;;;12.69;42.74
11329;BME280;5719;42.714;23.732;2023-04-28T08:03:22;94799.97;;;12.72;43.79
11329;BME280;5719;42.714;23.732;2023-04-28T08:05:49;94789.66;;;12.38;42.84
11329;BME280;5719;42.714;23.732;2023-04-28T08:08:16;94784.44;;;12.95;43.98
11329;BME280;5719;42.714;23.732;2023-04-28T08:10:43;94768.84;;;13.61;42.41
11329;BME280;5719;42.714;23.732;2023-04-28T08:13:10;94781.94;;;14.66;39.38
11329;BME280;5719;42.714;23.732;2023-04-28T08:15:37;94775.31;;;13.78;40.54
11329;BME280;5719;42.714;23.732;2023-04-28T08:18:06;94774.44;;;13.46;41.51
11329;BME280;5719;42.714;23.732;2023-04-28T08:20:33;94772.38;;;13.71;41.38
11329;BME280;5719;42.714;23.732;2023-04-28T08:23:00;94770.66;;;14.24;40.71
11329;BME280;5719;42.714;23.732;2023-04-28T08:25:27;94774.00;;;14.15;40.31
11329;BME280;5719;42.714;23.732;2023-04-28T08:27:56;94774.19;;;13.92;41.05
11329;BME280;5719;42.714;23.732;2023-04-28T08:30:23;94769.00;;;14.55;40.20
11329;BME280;5719;42.714;23.732;2023-04-28T08:32:50;94771.84;;;14.52;39.35
11329;BME280;5719;42.714;23.732;2023-04-28T08:35:18;94765.25;;;14.48;39.27
11329;BME280;5719;42.714;23.732;2023-04-28T08:37:45;94753.16;;;14.27;38.67
11329;BME280;5719;42.714;23.732;2023-04-28T08:40:14;94756.50;;;14.70;39.66
11329;BME280;5719;42.714;23.732;2023-04-28T08:42:41;94754.13;;;14.88;39.85
11329;BME280;5719;42.714;23.732;2023-04-28T08:45:12;94760.69;;;14.61;39.11
11329;BME280;5719;42.714;23.732;2023-04-28T08:47:39;94759.06;;;15.21;39.63
11329;BME280;5719;42.714;23.732;2023-04-28T08:50:11;94738.59;;;15.47;39.19
11329;BME280;5719;42.714;23.732;2023-04-28T08:52:40;94746.06;;;15.21;39.49
11329;BME280;5719;42.714;23.732;2023-04-28T08:55:09;94746.72;;;15.53;38.99
11329;BME280;5719;42.714;23.732;2023-04-28T08:57:38;94746.13;;;15.80;39.55
11329;BME280;5719;42.714;23.732;2023-04-28T09:00:06;94745.00;;;15.73;37.57
11329;BME280;5719;42.714;23.732;2023-04-28T09:02:33;94736.44;;;14.61;40.39
11329;BME280;5719;42.714;23.732;2023-04-28T09:05:02;94737.09;;;15.44;38.72
11329;BME280;5719;42.714;23.732;2023-04-28T09:07:29;94743.03;;;15.56;39.38
11329;BME280;5719;42.714;23.732;2023-04-28T09:10:17;94736.25;;;16.32;38.15
11329;BME280;5719;42.714;23.732;2023-04-28T09:12:44;94737.91;;;16.13;35.39
11329;BME280;5719;42.714;23.732;2023-04-28T09:15:24;94738.66;;;15.56;36.47
11329;BME280;5719;42.714;23.732;2023-04-28T09:17:51;94733.47;;;14.96;39.49
11329;BME280;5719;42.714;23.732;2023-04-28T09:20:19;94730.03;;;14.44;41.53
11329;BME280;5719;42.714;23.732;2023-04-28T09:22:48;94730.03;;;15.26;39.83
11329;BME280;5719;42.714;23.732;2023-04-28T09:25:17;94725.03;;;15.13;38.27
11329;BME280;5719;42.714;23.732;2023-04-28T09:27:47;94731.50;;;14.05;40.66
11329;BME280;5719;42.714;23.732;2023-04-28T09:30:14;94720.41;;;14.56;40.17
11329;BME280;5719;42.714;23.732;2023-04-28T09:32:41;94711.06;;;15.14;39.51
11329;BME280;5719;42.714;23.732;2023-04-28T09:35:08;94717.97;;;14.94;38.80
11329;BME280;5719;42.714;23.732;2023-04-28T09:37:35;94726.59;;;14.64;38.09
11329;BME280;5719;42.714;23.732;2023-04-28T09:40:05;94714.81;;;14.60;40.20
11329;BME280;5719;42.714;23.732;2023-04-28T09:42:35;94711.13;;;13.90;40.88
11329;BME280;5719;42.714;23.732;2023-04-28T09:45:03;94688.31;;;14.46;40.49
11329;BME280;5719;42.714;23.732;2023-04-28T09:47:31;94700.31;;;14.98;39.63
11329;BME280;5719;42.714;23.732;2023-04-28T09:50:02;94695.31;;;15.55;38.65
11329;BME280;5719;42.714;23.732;2023-04-28T09:52:29;94695.00;;;15.09;38.62
11329;BME280;5719;42.714;23.732;2023-04-28T09:54:56;94687.00;;;14.61;38.65
11329;BME280;5719;42.714;23.732;2023-04-28T09:57:24;94678.94;;;14.94;38.96
11329;BME280;5719;42.714;23.732;2023-04-28T09:59:52;94698.34;;;14.81;37.71
11329;BME280;5719;42.714;23.732;2023-04-28T10:02:20;94697.13;;;16.03;38.45
11329;BME280;5719;42.714;23.732;2023-04-28T10:04:48;94684.22;;;15.82;37.82
11329;BME280;5719;42.714;23.732;2023-04-28T10:07:16;94679.13;;;16.00;37.48
11329;BME280;5719;42.714;23.732;2023-04-28T10:09:45;94683.28;;;15.24;35.91
11329;BME280;5719;42.714;23.732;2023-04-28T10:12:15;94660.13;;;15.31;36.75
11329;BME280;5719;42.714;23.732;2023-04-28T10:14:42;94663.22;;;15.64;39.96
11329;BME280;5719;42.714;23.732;2023-04-28T10:17:12;94659.84;;;16.49;38.83
11329;BME280;5719;42.714;23.732;2023-04-28T10:19:39;94670.91;;;16.24;35.75
11329;BME280;5719;42.714;23.732;2023-04-28T10:22:31;94669.31;;;16.69;35.42
11329;BME280;5719;42.714;23.732;2023-04-28T10:25:11;94666.09;;;16.00;35.83
11329;BME280;5719;42.714;23.732;2023-04-28T10:27:44;94667.72;;;16.39;37.07
11329;BME280;5719;42.714;23.732;2023-04-28T10:30:13;94666.41;;;16.72;35.00
11329;BME280;5719;42.714;23.732;2023-04-28T10:32:42;94662.13;;;17.35;36.07
11329;BME280;5719;42.714;23.732;2023-04-28T10:35:41;94660.44;;;17.16;34.66
11329;BME280;5719;42.714;23.732;2023-04-28T10:38:10;94667.59;;;17.42;34.46
11329;BME280;5719;42.714;23.732;2023-04-28T10:40:39;94655.13;;;16.81;37.79
11329;BME280;5719;42.714;23.732;2023-04-28T10:43:07;94667.19;;;15.78;37.92
11329;BME280;5719;42.714;23.732;2023-04-28T10:45:59;94659.66;;;15.65;38.03
11329;BME280;5719;42.714;23.732;2023-04-28T10:51:33;94650.53;;;16.37;37.06
11329;BME280;5719;42.714;23.732;2023-04-28T10:54:22;94653.75;;;15.92;36.48
11329;BME280;5719;42.714;23.732;2023-04-28T10:57:20;94645.94;;;15.63;38.62
11329;BME280;5719;42.714;23.732;2023-04-28T11:00:31;94628.91;;;16.07;36.93
11329;BME280;5719;42.714;23.732;2023-04-28T11:02:58;94626.09;;;16.38;37.23
11329;BME280;5719;42.714;23.732;2023-04-28T11:05:25;94626.03;;;16.01;35.57
11329;BME280;5719;42.714;23.732;2023-04-28T11:08:32;94625.56;;;16.81;35.46
11329;BME280;5719;42.714;23.732;2023-04-28T11:11:21;94621.56;;;16.86;35.00
11329;BME280;5719;42.714;23.732;2023-04-28T11:13:49;94619.31;;;16.64;35.58
11329;BME280;5719;42.714;23.732;2023-04-28T11:16:18;94620.19;;;16.45;37.22
11329;BME280;5719;42.714;23.732;2023-04-28T11:18:59;94618.19;;;17.48;34.94
11329;BME280;5719;42.714;23.732;2023-04-28T11:21:30;94614.16;;;17.89;33.93
11329;BME280;5719;42.714;23.732;2023-04-28T11:23:58;94613.75;;;17.58;36.11
11329;BME280;5719;42.714;23.732;2023-04-28T11:26:26;94606.25;;;17.99;36.20
11329;BME280;5719;42.714;23.732;2023-04-28T11:28:55;94604.63;;;17.62;35.71
11329;BME280;5719;42.714;23.732;2023-04-28T11:31:24;94599.66;;;17.95;35.41
11329;BME280;5719;42.714;23.732;2023-04-28T11:33:53;94608.25;;;18.05;34.60
11329;BME280;5719;42.714;23.732;2023-04-28T11:36:27;94599.16;;;17.91;36.23
11329;BME280;5719;42.714;23.732;2023-04-28T11:38:54;94606.50;;;17.25;35.44
11329;BME280;5719;42.714;23.732;2023-04-28T11:41:23;94597.59;;;17.00;35.72
11329;BME280;5719;42.714;23.732;2023-04-28T11:43:51;94600.53;;;16.60;35.62
11329;BME280;5719;42.714;23.732;2023-04-28T11:46:19;94594.69;;;17.21;35.53
11329;BME280;5719;42.714;23.732;2023-04-28T11:48:46;94597.28;;;17.48;35.40
11329;BME280;5719;42.714;23.732;2023-04-28T11:51:37;94583.38;;;18.27;33.97
11329;BME280;5719;42.714;23.732;2023-04-28T11:54:06;94596.84;;;18.32;34.57
11329;BME280;5719;42.714;23.732;2023-04-28T11:56:38;94590.31;;;18.10;34.18
11329;BME280;5719;42.714;23.732;2023-04-28T11:59:07;94590.34;;;18.44;34.55
11329;BME280;5719;42.714;23.732;2023-04-28T12:01:43;94585.84;;;18.02;33.38
11329;BME280;5719;42.714;23.732;2023-04-28T12:04:11;94589.13;;;19.32;32.46
11329;BME280;5719;42.714;23.732;2023-04-28T12:06:38;94578.56;;;19.90;31.14
11329;BME280;5719;42.714;23.732;2023-04-28T12:09:15;94576.66;;;19.26;32.87
11329;BME280;5719;42.714;23.732;2023-04-28T12:11:55;94582.16;;;19.65;32.69
11329;BME280;5719;42.714;23.732;2023-04-28T12:14:23;94571.44;;;18.84;32.61
11329;BME280;5719;42.714;23.732;2023-04-28T12:16:50;94567.94;;;18.16;33.75
11329;BME280;5719;42.714;23.732;2023-04-28T12:19:18;94563.75;;;17.61;35.09
11329;BME280;5719;42.714;23.732;2023-04-28T12:21:59;94559.38;;;17.17;36.69
11329;BME280;5719;42.714;23.732;2023-04-28T12:24:26;94556.06;;;17.60;35.91
11329;BME280;5719;42.714;23.732;2023-04-28T12:27:12;94549.22;;;18.28;32.57
11329;BME280;5719;42.714;23.732;2023-04-28T12:29:42;94545.88;;;18.78;33.79
11329;BME280;5719;42.714;23.732;2023-04-28T12:32:11;94538.84;;;18.78;32.78
11329;BME280;5719;42.714;23.732;2023-04-28T12:34:39;94540.59;;;19.20;34.65
11329;BME280;5719;42.714;23.732;2023-04-28T12:37:06;94537.66;;;20.44;31.89
11329;BME280;5719;42.714;23.732;2023-04-28T12:39:34;94539.38;;;20.76;30.49
11329;BME280;5719;42.714;23.732;2023-04-28T12:42:04;94536.03;;;20.43;31.24
11329;BME280;5719;42.714;23.732;2023-04-28T12:44:31;94537.84;;;20.34;30.40
11329;BME280;5719;42.714;23.732;2023-04-28T12:47:02;94539.25;;;21.39;29.98
11329;BME280;5719;42.714;23.732;2023-04-28T12:49:30;94539.19;;;20.14;31.27
11329;BME280;5719;42.714;23.732;2023-04-28T12:51:58;94523.94;;;20.10;31.22
11329;BME280;5719;42.714;23.732;2023-04-28T12:54:26;94533.31;;;19.55;32.10
11329;BME280;5719;42.714;23.732;2023-04-28T12:56:52;94532.22;;;18.66;32.68
11329;BME280;5719;42.714;23.732;2023-04-28T12:59:21;94524.13;;;19.60;32.46
11329;BME280;5719;42.714;23.732;2023-04-28T13:01:48;94524.63;;;20.03;31.73
11329;BME280;5719;42.714;23.732;2023-04-28T13:04:16;94520.53;;;19.69;30.71
11329;BME280;5719;42.714;23.732;2023-04-28T13:06:43;94522.91;;;18.64;32.56
11329;BME280;5719;42.714;23.732;2023-04-28T13:09:10;94531.84;;;18.27;33.15
11329;BME280;5719;42.714;23.732;2023-04-28T13:11:37;94521.94;;;19.23;32.56
11329;BME280;5719;42.714;23.732;2023-04-28T13:14:05;94516.50;;;19.24;32.34
11329;BME280;5719;42.714;23.732;2023-04-28T13:16:33;94523.06;;;19.12;32.84